sensor_id;sensor_type;location;lat;lon;timestamp;temperature;humidity
19646;DHT22;9971;52.446;13.452;2023-04-19T00:03:45;9.10;99.90
19646;DHT22;9971;52.446;13.452;2023-04-19T00:08:47;9.20;99.90
19646;DHT22;9971;52.446;13.452;2023-04-19T00:13:50;9.20;99.90
19646;DHT22;9971;52.446;13.452;2023-04-19T00:18:52;9.20;99.90
19646;DHT22;9971;52.446;13.452;2023-04-19T00:23:54;9.20;99.90
19646;DHT22;9971;52.446;13.452;2023-04-19T00:28:58;9.20;99.90
19646;DHT22;9971;52.446;13.452;2023-04-19T00:34:00;9.20;99.90
19646;DHT22;9971;52.446;13.452;2023-04-19T00:39:03;9.10;99.90
19646;DHT22;9971;52.446;13.452;2023-04-19T00:44:06;9.20;99.90
19646;DHT22;9971;52.446;13.452;2023-04-19T00:49:08;9.20;99.90
19646;DHT22;9971;52.446;13.452;2023-04-19T00:54:10;9.20;99.90
19646;DHT22;9971;52.446;13.452;2023-04-19T00:59:13;9.20;99.90
19646;DHT22;9971;52.446;13.452;2023-04-19T01:04:15;9.20;99.90
19646;DHT22;9971;52.446;13.452;2023-04-19T01:09:17;9.20;99.90
19646;DHT22;9971;52.446;13.452;2023-04-19T01:14:21;9.20;99.90
19646;DHT22;9971;52.446;13.452;2023-04-19T01:19:25;9.10;99.90
19646;DHT22;9971;52.446;13.452;2023-04-19T01:24:27;9.10;99.90
19646;DHT22;9971;52.446;13.452;2023-04-19T01:29:30;9.00;99.90
19646;DHT22;9971;52.446;13.452;2023-04-19T01:34:33;8.90;99.90
19646;DHT22;9971;52.446;13.452;2023-04-19T01:39:35;8.80;99.90
19646;DHT22;9971;52.446;13.452;2023-04-19T01:44:38;8.70;99.90
19646;DHT22;9971;52.446;13.452;2023-04-19T01:49:40;8.60;99.90
19646;DHT22;9971;52.446;13.452;2023-04-19T01:54:42;8.50;99.90
19646;DHT22;9971;52.446;13.452;2023-04-19T01:59:45;8.40;99.90
19646;DHT22;9971;52.446;13.452;2023-04-19T02:04:48;8.30;99.90
19646;DHT22;9971;52.446;13.452;2023-04-19T02:09:50;8.30;99.90
19646;DHT22;9971;52.446;13.452;2023-04-19T02:14:53;8.10;99.90
19646;DHT22;9971;52.446;13.452;2023-04-19T02:19:55;8.10;99.90
19646;DHT22;9971;52.446;13.452;2023-04-19T02:24:57;8.00;99.90
19646;DHT22;9971;52.446;13.452;2023-04-19T02:30:00;7.90;99.90
19646;DHT22;9971;52.446;13.452;2023-04-19T02:35:03;7.90;99.90
19646;DHT22;9971;52.446;13.452;2023-04-19T02:40:06;7.70;99.90
19646;DHT22;9971;52.446;13.452;2023-04-19T02:45:09;7.70;99.90
19646;DHT22;9971;52.446;13.452;2023-04-19T02:50:11;7.60;99.90
19646;DHT22;9971;52.446;13.452;2023-04-19T02:55:13;7.60;99.90
19646;DHT22;9971;52.446;13.452;2023-04-19T03:00:16;7.50;99.90
19646;DHT22;9971;52.446;13.452;2023-04-19T03:05:18;7.40;99.90
19646;DHT22;9971;52.446;13.452;2023-04-19T03:10:20;7.40;99.90
19646;DHT22;9971;52.446;13.452;2023-04-19T03:15:23;7.30;99.90
19646;DHT22;9971;52.446;13.452;2023-04-19T03:20:25;7.20;99.90
19646;DHT22;9971;52.446;13.452;2023-04-19T03:25:28;7.10;99.90
19646;DHT22;9971;52.446;13.452;2023-04-19T03:30:35;7.10;99.90
19646;DHT22;9971;52.446;13.452;2023-04-19T03:35:39;7.00;99.90
19646;DHT22;9971;52.446;13.452;2023-04-19T03:40:41;7.00;99.90
19646;DHT22;9971;52.446;13.452;2023-04-19T03:45:44;6.90;99.90
19646;DHT22;9971;52.446;13.452;2023-04-19T03:50:46;6.90;99.90
19646;DHT22;9971;52.446;13.452;2023-04-19T03:55:48;6.90;99.90
19646;DHT22;9971;52.446;13.452;2023-04-19T04:00:51;6.90;99.90
19646;DHT22;9971;52.446;13.452;2023-04-19T04:05:53;6.90;99.90
19646;DHT22;9971;52.446;13.452;2023-04-19T04:10:55;6.90;99.90
19646;DHT22;9971;52.446;13.452;2023-04-19T04:15:59;6.80;99.90
19646;DHT22;9971;52.446;13.452;2023-04-19T04:21:02;6.90;99.90
19646;DHT22;9971;52.446;13.452;2023-04-19T04:26:05;6.90;99.90
19646;DHT22;9971;52.446;13.452;2023-04-19T04:31:07;6.90;99.90
19646;DHT22;9971;52.446;13.452;2023-04-19T04:36:10;6.90;99.90
19646;DHT22;9971;52.446;13.452;2023-04-19T04:41:12;7.00;99.90
19646;DHT22;9971;52.446;13.452;2023-04-19T04:46:15;7.00;99.90
19646;DHT22;9971;52.446;13.452;2023-04-19T04:51:17;7.00;99.90
19646;DHT22;9971;52.446;13.452;2023-04-19T04:56:20;7.00;99.90
19646;DHT22;9971;52.446;13.452;2023-04-19T05:01:22;7.00;99.90
19646;DHT22;9971;52.446;13.452;2023-04-19T05:06:24;7.10;99.90
19646;DHT22;9971;52.446;13.452;2023-04-19T05:11:26;7.20;99.90
19646;DHT22;9971;52.446;13.452;2023-04-19T05:16:29;7.20;99.90
19646;DHT22;9971;52.446;13.452;2023-04-19T05:21:32;7.20;99.90
19646;DHT22;9971;52.446;13.452;2023-04-19T05:26:34;7.30;99.90
19646;DHT22;9971;52.446;13.452;2023-04-19T05:31:36;7.30;99.90
19646;DHT22;9971;52.446;13.452;2023-04-19T05:36:39;7.40;99.90
19646;DHT22;9971;52.446;13.452;2023-04-19T05:41:42;7.50;99.90
19646;DHT22;9971;52.446;13.452;2023-04-19T05:46:45;7.60;99.90
19646;DHT22;9971;52.446;13.452;2023-04-19T05:51:47;7.70;99.90
19646;DHT22;9971;52.446;13.452;2023-04-19T05:56:50;7.80;99.90
19646;DHT22;9971;52.446;13.452;2023-04-19T06:01:55;7.90;99.90
19646;DHT22;9971;52.446;13.452;2023-04-19T06:07:00;8.00;99.90
19646;DHT22;9971;52.446;13.452;2023-04-19T06:12:06;8.20;99.90
19646;DHT22;9971;52.446;13.452;2023-04-19T06:17:12;8.30;99.90
19646;DHT22;9971;52.446;13.452;2023-04-19T06:22:16;8.40;99.90
19646;DHT22;9971;52.446;13.452;2023-04-19T06:27:21;8.50;99.90
19646;DHT22;9971;52.446;13.452;2023-04-19T06:32:28;8.60;99.90
19646;DHT22;9971;52.446;13.452;2023-04-19T06:37:34;8.80;99.90
19646;DHT22;9971;52.446;13.452;2023-04-19T06:42:38;8.90;99.90
19646;DHT22;9971;52.446;13.452;2023-04-19T06:47:40;9.00;99.90
19646;DHT22;9971;52.446;13.452;2023-04-19T06:52:43;9.10;99.90
19646;DHT22;9971;52.446;13.452;2023-04-19T06:57:52;9.20;99.90
19646;DHT22;9971;52.446;13.452;2023-04-19T07:03:05;9.40;99.90
19646;DHT22;9971;52.446;13.452;2023-04-19T07:08:39;9.50;99.90
19646;DHT22;9971;52.446;13.452;2023-04-19T07:13:58;9.70;99.90
19646;DHT22;9971;52.446;13.452;2023-04-19T07:19:08;9.90;99.90
19646;DHT22;9971;52.446;13.452;2023-04-19T07:24:35;10.00;99.90
19646;DHT22;9971;52.446;13.452;2023-04-19T07:29:49;10.20;99.90
19646;DHT22;9971;52.446;13.452;2023-04-19T07:34:53;10.40;99.90
19646;DHT22;9971;52.446;13.452;2023-04-19T07:39:57;10.50;99.90
19646;DHT22;9971;52.446;13.452;2023-04-19T07:45:00;10.70;99.90
19646;DHT22;9971;52.446;13.452;2023-04-19T07:50:04;10.80;99.90
19646;DHT22;9971;52.446;13.452;2023-04-19T07:55:09;10.90;99.90
19646;DHT22;9971;52.446;13.452;2023-04-19T08:00:12;11.00;99.90
19646;DHT22;9971;52.446;13.452;2023-04-19T08:05:15;11.20;99.90
19646;DHT22;9971;52.446;13.452;2023-04-19T08:10:17;11.40;99.90
19646;DHT22;9971;52.446;13.452;2023-04-19T08:15:20;11.50;99.90
19646;DHT22;9971;52.446;13.452;2023-04-19T08:20:24;11.80;99.90
19646;DHT22;9971;52.446;13.452;2023-04-19T08:25:27;11.90;99.90
19646;DHT22;9971;52.446;13.452;2023-04-19T08:30:30;12.10;99.90
19646;DHT22;9971;52.446;13.452;2023-04-19T08:35:33;12.20;99.90
19646;DHT22;9971;52.446;13.452;2023-04-19T08:40:34;12.50;99.90
19646;DHT22;9971;52.446;13.452;2023-04-19T08:45:37;12.60;99.90
19646;DHT22;9971;52.446;13.452;2023-04-19T08:50:40;12.90;99.90
19646;DHT22;9971;52.446;13.452;2023-04-19T08:55:41;13.20;99.90
19646;DHT22;9971;52.446;13.452;2023-04-19T09:00:43;13.30;99.90
19646;DHT22;9971;52.446;13.452;2023-04-19T09:05:45;13.50;99.90
19646;DHT22;9971;52.446;13.452;2023-04-19T09:10:53;13.60;99.90
19646;DHT22;9971;52.446;13.452;2023-04-19T09:15:54;13.80;99.90
19646;DHT22;9971;52.446;13.452;2023-04-19T09:20:59;14.00;99.90
19646;DHT22;9971;52.446;13.452;2023-04-19T09:26:01;14.30;99.80
19646;DHT22;9971;52.446;13.452;2023-04-19T09:31:12;14.20;99.90
19646;DHT22;9971;52.446;13.452;2023-04-19T09:36:30;14.50;99.40
19646;DHT22;9971;52.446;13.452;2023-04-19T09:41:32;14.60;98.50
19646;DHT22;9971;52.446;13.452;2023-04-19T09:46:35;14.70;97.90
19646;DHT22;9971;52.446;13.452;2023-04-19T09:51:42;14.90;97.90
19646;DHT22;9971;52.446;13.452;2023-04-19T09:56:44;15.10;97.10
19646;DHT22;9971;52.446;13.452;2023-04-19T10:01:53;15.20;96.90
19646;DHT22;9971;52.446;13.452;2023-04-19T10:06:59;15.50;96.20
19646;DHT22;9971;52.446;13.452;2023-04-19T10:17:34;15.60;96.00
19646;DHT22;9971;52.446;13.452;2023-04-19T10:22:45;15.90;93.90
19646;DHT22;9971;52.446;13.452;2023-04-19T10:27:49;16.00;93.90
19646;DHT22;9971;52.446;13.452;2023-04-19T10:33:08;15.90;92.90
19646;DHT22;9971;52.446;13.452;2023-04-19T11:17:16;15.70;91.60
19646;DHT22;9971;52.446;13.452;2023-04-19T11:33:42;15.90;91.40
19646;DHT22;9971;52.446;13.452;2023-04-19T11:44:13;16.00;92.00
19646;DHT22;9971;52.446;13.452;2023-04-19T11:49:24;15.60;91.30
19646;DHT22;9971;52.446;13.452;2023-04-19T11:54:16;15.70;91.30
19646;DHT22;9971;52.446;13.452;2023-04-19T11:59:20;15.60;91.00
19646;DHT22;9971;52.446;13.452;2023-04-19T12:04:23;15.30;91.60
19646;DHT22;9971;52.446;13.452;2023-04-19T12:09:25;15.40;91.80
19646;DHT22;9971;52.446;13.452;2023-04-19T12:14:28;15.60;91.50
19646;DHT22;9971;52.446;13.452;2023-04-19T12:24:49;15.60;89.10
19646;DHT22;9971;52.446;13.452;2023-04-19T12:29:49;15.60;90.10
19646;DHT22;9971;52.446;13.452;2023-04-19T12:34:51;15.50;90.10
19646;DHT22;9971;52.446;13.452;2023-04-19T12:40:00;15.50;89.10
19646;DHT22;9971;52.446;13.452;2023-04-19T12:45:11;15.50;90.10
19646;DHT22;9971;52.446;13.452;2023-04-19T12:50:33;15.60;90.00
19646;DHT22;9971;52.446;13.452;2023-04-19T12:55:40;15.60;89.60
19646;DHT22;9971;52.446;13.452;2023-04-19T13:00:44;15.80;89.90
19646;DHT22;9971;52.446;13.452;2023-04-19T13:05:47;15.70;90.00
19646;DHT22;9971;52.446;13.452;2023-04-19T13:11:02;15.60;89.20
19646;DHT22;9971;52.446;13.452;2023-04-19T13:16:09;15.70;87.10
19646;DHT22;9971;52.446;13.452;2023-04-19T13:21:18;15.80;88.40
19646;DHT22;9971;52.446;13.452;2023-04-19T13:26:25;16.00;86.90
19646;DHT22;9971;52.446;13.452;2023-04-19T13:31:28;16.20;86.80
19646;DHT22;9971;52.446;13.452;2023-04-19T13:36:31;15.90;85.30
19646;DHT22;9971;52.446;13.452;2023-04-19T13:41:33;15.70;87.00
19646;DHT22;9971;52.446;13.452;2023-04-19T13:46:35;15.50;85.40
19646;DHT22;9971;52.446;13.452;2023-04-19T13:51:38;15.40;84.80
19646;DHT22;9971;52.446;13.452;2023-04-19T13:56:42;15.30;85.00
19646;DHT22;9971;52.446;13.452;2023-04-19T14:01:44;14.90;86.40
19646;DHT22;9971;52.446;13.452;2023-04-19T14:07:04;14.80;87.50
19646;DHT22;9971;52.446;13.452;2023-04-19T14:12:11;14.60;87.60
19646;DHT22;9971;52.446;13.452;2023-04-19T14:17:14;14.20;92.90
19646;DHT22;9971;52.446;13.452;2023-04-19T14:22:19;13.90;94.80
19646;DHT22;9971;52.446;13.452;2023-04-19T14:27:22;13.70;95.40
19646;DHT22;9971;52.446;13.452;2023-04-19T14:32:44;13.70;93.80
19646;DHT22;9971;52.446;13.452;2023-04-19T14:37:49;13.80;92.60
19646;DHT22;9971;52.446;13.452;2023-04-19T14:42:53;13.80;93.20
19646;DHT22;9971;52.446;13.452;2023-04-19T14:47:57;13.70;93.30
19646;DHT22;9971;52.446;13.452;2023-04-19T14:53:01;13.50;93.20
19646;DHT22;9971;52.446;13.452;2023-04-19T14:58:03;13.50;95.50
19646;DHT22;9971;52.446;13.452;2023-04-19T15:03:12;13.40;95.60
19646;DHT22;9971;52.446;13.452;2023-04-19T15:08:18;13.40;95.50
19646;DHT22;9971;52.446;13.452;2023-04-19T15:13:20;13.30;98.00
19646;DHT22;9971;52.446;13.452;2023-04-19T15:18:22;13.00;99.90
19646;DHT22;9971;52.446;13.452;2023-04-19T15:23:24;12.60;99.90
19646;DHT22;9971;52.446;13.452;2023-04-19T15:28:27;12.30;99.90
19646;DHT22;9971;52.446;13.452;2023-04-19T15:33:29;11.90;99.90
19646;DHT22;9971;52.446;13.452;2023-04-19T15:38:33;11.40;99.90
19646;DHT22;9971;52.446;13.452;2023-04-19T15:43:36;10.80;99.90
19646;DHT22;9971;52.446;13.452;2023-04-19T15:48:39;10.40;99.90
19646;DHT22;9971;52.446;13.452;2023-04-19T15:53:44;10.10;99.90
19646;DHT22;9971;52.446;13.452;2023-04-19T15:58:50;9.90;99.90
19646;DHT22;9971;52.446;13.452;2023-04-19T16:03:55;9.70;99.90
19646;DHT22;9971;52.446;13.452;2023-04-19T16:08:57;9.60;99.90
19646;DHT22;9971;52.446;13.452;2023-04-19T16:14:02;9.30;99.90
19646;DHT22;9971;52.446;13.452;2023-04-19T16:19:15;9.10;99.90
19646;DHT22;9971;52.446;13.452;2023-04-19T16:24:29;9.00;99.90
19646;DHT22;9971;52.446;13.452;2023-04-19T16:29:38;8.80;99.90
19646;DHT22;9971;52.446;13.452;2023-04-19T16:34:43;8.80;99.90
19646;DHT22;9971;52.446;13.452;2023-04-19T16:39:45;8.80;99.90
19646;DHT22;9971;52.446;13.452;2023-04-19T16:44:49;8.80;99.90
19646;DHT22;9971;52.446;13.452;2023-04-19T16:49:56;8.80;99.90
19646;DHT22;9971;52.446;13.452;2023-04-19T16:54:57;8.80;99.90
19646;DHT22;9971;52.446;13.452;2023-04-19T16:59:59;8.80;99.90
19646;DHT22;9971;52.446;13.452;2023-04-19T17:05:02;8.90;99.90
19646;DHT22;9971;52.446;13.452;2023-04-19T17:10:05;8.90;99.90
19646;DHT22;9971;52.446;13.452;2023-04-19T17:15:08;8.90;99.90
19646;DHT22;9971;52.446;13.452;2023-04-19T17:20:10;8.80;99.90
19646;DHT22;9971;52.446;13.452;2023-04-19T17:25:14;8.80;99.90
19646;DHT22;9971;52.446;13.452;2023-04-19T17:30:17;8.80;99.90
19646;DHT22;9971;52.446;13.452;2023-04-19T17:35:19;8.80;99.90
19646;DHT22;9971;52.446;13.452;2023-04-19T17:40:21;8.80;99.90
19646;DHT22;9971;52.446;13.452;2023-04-19T17:45:26;8.80;99.90
19646;DHT22;9971;52.446;13.452;2023-04-19T17:50:31;8.80;99.90
19646;DHT22;9971;52.446;13.452;2023-04-19T17:55:34;8.80;99.90
19646;DHT22;9971;52.446;13.452;2023-04-19T18:00:38;8.80;99.90
19646;DHT22;9971;52.446;13.452;2023-04-19T18:05:47;8.80;99.90
19646;DHT22;9971;52.446;13.452;2023-04-19T18:10:52;8.80;99.90
19646;DHT22;9971;52.446;13.452;2023-04-19T18:15:55;8.80;99.90
19646;DHT22;9971;52.446;13.452;2023-04-19T18:20:57;8.90;99.90
19646;DHT22;9971;52.446;13.452;2023-04-19T18:26:00;8.80;99.90
19646;DHT22;9971;52.446;13.452;2023-04-19T18:31:03;8.90;99.90
19646;DHT22;9971;52.446;13.452;2023-04-19T18:36:04;8.90;99.90
19646;DHT22;9971;52.446;13.452;2023-04-19T18:41:07;8.90;99.90
19646;DHT22;9971;52.446;13.452;2023-04-19T18:46:10;8.90;99.90
19646;DHT22;9971;52.446;13.452;2023-04-19T18:51:12;9.00;99.90
19646;DHT22;9971;52.446;13.452;2023-04-19T18:56:15;9.00;99.90
19646;DHT22;9971;52.446;13.452;2023-04-19T19:01:17;9.00;99.90
19646;DHT22;9971;52.446;13.452;2023-04-19T19:06:21;9.00;99.90
19646;DHT22;9971;52.446;13.452;2023-04-19T19:11:25;9.10;99.90
19646;DHT22;9971;52.446;13.452;2023-04-19T19:16:28;9.10;99.90
19646;DHT22;9971;52.446;13.452;2023-04-19T19:21:40;9.10;99.90
19646;DHT22;9971;52.446;13.452;2023-04-19T19:26:49;9.10;99.90
19646;DHT22;9971;52.446;13.452;2023-04-19T19:31:51;9.20;99.90
19646;DHT22;9971;52.446;13.452;2023-04-19T19:36:53;9.20;99.90
19646;DHT22;9971;52.446;13.452;2023-04-19T19:42:03;9.30;99.90
19646;DHT22;9971;52.446;13.452;2023-04-19T19:47:05;9.20;99.90
19646;DHT22;9971;52.446;13.452;2023-04-19T19:52:08;9.30;99.90
19646;DHT22;9971;52.446;13.452;2023-04-19T19:57:10;9.30;99.90
19646;DHT22;9971;52.446;13.452;2023-04-19T20:02:13;9.30;99.90
19646;DHT22;9971;52.446;13.452;2023-04-19T20:07:15;9.30;99.90
19646;DHT22;9971;52.446;13.452;2023-04-19T20:12:17;9.30;99.90
19646;DHT22;9971;52.446;13.452;2023-04-19T20:17:25;9.30;99.90
19646;DHT22;9971;52.446;13.452;2023-04-19T20:22:33;9.30;99.90
19646;DHT22;9971;52.446;13.452;2023-04-19T20:27:36;9.30;99.90
19646;DHT22;9971;52.446;13.452;2023-04-19T20:32:39;9.30;99.90
19646;DHT22;9971;52.446;13.452;2023-04-19T20:37:41;9.30;99.90
19646;DHT22;9971;52.446;13.452;2023-04-19T20:42:43;9.30;99.90
19646;DHT22;9971;52.446;13.452;2023-04-19T20:47:49;9.30;99.90
19646;DHT22;9971;52.446;13.452;2023-04-19T20:52:55;9.30;99.90
19646;DHT22;9971;52.446;13.452;2023-04-19T20:58:04;9.30;99.90
19646;DHT22;9971;52.446;13.452;2023-04-19T21:03:13;9.30;99.90
19646;DHT22;9971;52.446;13.452;2023-04-19T21:08:16;9.30;99.90
19646;DHT22;9971;52.446;13.452;2023-04-19T21:13:20;9.30;99.90
19646;DHT22;9971;52.446;13.452;2023-04-19T21:18:22;9.30;99.90
19646;DHT22;9971;52.446;13.452;2023-04-19T21:23:25;9.30;99.90
19646;DHT22;9971;52.446;13.452;2023-04-19T21:28:27;9.30;99.90
19646;DHT22;9971;52.446;13.452;2023-04-19T21:33:31;9.30;99.90
19646;DHT22;9971;52.446;13.452;2023-04-19T21:49:20;9.00;99.90
19646;DHT22;9971;52.446;13.452;2023-04-19T21:54:39;8.90;99.90
19646;DHT22;9971;52.446;13.452;2023-04-19T21:59:52;8.90;99.90
19646;DHT22;9971;52.446;13.452;2023-04-19T22:04:56;8.90;99.90
19646;DHT22;9971;52.446;13.452;2023-04-19T22:09:58;8.80;99.90
19646;DHT22;9971;52.446;13.452;2023-04-19T22:15:01;8.80;99.90
19646;DHT22;9971;52.446;13.452;2023-04-19T22:20:04;8.80;99.90
19646;DHT22;9971;52.446;13.452;2023-04-19T22:25:09;8.80;99.90
19646;DHT22;9971;52.446;13.452;2023-04-19T22:30:16;8.80;99.90
19646;DHT22;9971;52.446;13.452;2023-04-19T22:35:20;8.80;99.90
19646;DHT22;9971;52.446;13.452;2023-04-19T22:40:26;8.80;99.90
19646;DHT22;9971;52.446;13.452;2023-04-19T22:50:55;8.80;99.90
19646;DHT22;9971;52.446;13.452;2023-04-19T22:55:57;8.80;99.90
19646;DHT22;9971;52.446;13.452;2023-04-19T23:01:00;8.70;99.90
19646;DHT22;9971;52.446;13.452;2023-04-19T23:06:11;8.80;99.90
19646;DHT22;9971;52.446;13.452;2023-04-19T23:11:16;8.80;99.90
19646;DHT22;9971;52.446;13.452;2023-04-19T23:16:18;8.80;99.90
19646;DHT22;9971;52.446;13.452;2023-04-19T23:21:22;8.90;99.90
19646;DHT22;9971;52.446;13.452;2023-04-19T23:26:25;9.00;99.90
19646;DHT22;9971;52.446;13.452;2023-04-19T23:31:28;8.90;99.90
19646;DHT22;9971;52.446;13.452;2023-04-19T23:36:32;9.00;99.90
19646;DHT22;9971;52.446;13.452;2023-04-19T23:41:39;9.00;99.90
19646;DHT22;9971;52.446;13.452;2023-04-19T23:46:43;8.90;99.90
19646;DHT22;9971;52.446;13.452;2023-04-19T23:51:46;8.90;99.90
19646;DHT22;9971;52.446;13.452;2023-04-19T23:56:48;8.90;99.90
